sensor_id;sensor_type;location;lat;lon;timestamp;P1;durP1;ratioP1;P2;durP2;ratioP2
44989;SDS011;30723;51.206;3.326;2022-07-23T00:00:18;10.80;;;5.57;;
44989;SDS011;30723;51.206;3.326;2022-07-23T00:02:44;15.98;;;11.10;;
44989;SDS011;30723;51.206;3.326;2022-07-23T00:05:10;8.20;;;5.60;;
44989;SDS011;30723;51.206;3.326;2022-07-23T00:07:36;10.88;;;4.95;;
44989;SDS011;30723;51.206;3.326;2022-07-23T00:10:03;6.55;;;5.15;;
44989;SDS011;30723;51.206;3.326;2022-07-23T00:12:30;10.13;;;5.57;;
44989;SDS011;30723;51.206;3.326;2022-07-23T00:14:55;7.43;;;5.22;;
44989;SDS011;30723;51.206;3.326;2022-07-23T00:17:22;8.50;;;5.13;;
44989;SDS011;30723;51.206;3.326;2022-07-23T00:19:49;10.52;;;5.93;;
44989;SDS011;30723;51.206;3.326;2022-07-23T00:22:15;9.38;;;5.85;;
44989;SDS011;30723;51.206;3.326;2022-07-23T00:24:42;11.20;;;5.65;;
44989;SDS011;30723;51.206;3.326;2022-07-23T00:27:09;8.25;;;5.97;;
44989;SDS011;30723;51.206;3.326;2022-07-23T00:29:35;6.53;;;5.15;;
44989;SDS011;30723;51.206;3.326;2022-07-23T00:32:02;9.38;;;5.70;;
44989;SDS011;30723;51.206;3.326;2022-07-23T00:34:30;6.00;;;4.95;;
44989;SDS011;30723;51.206;3.326;2022-07-23T00:37:04;8.77;;;6.30;;
44989;SDS011;30723;51.206;3.326;2022-07-23T00:39:30;11.85;;;5.60;;
44989;SDS011;30723;51.206;3.326;2022-07-23T00:41:57;6.47;;;5.53;;
44989;SDS011;30723;51.206;3.326;2022-07-23T00:44:25;11.23;;;5.75;;
44989;SDS011;30723;51.206;3.326;2022-07-23T00:46:53;10.05;;;5.70;;
44989;SDS011;30723;51.206;3.326;2022-07-23T00:49:23;10.82;;;5.53;;
44989;SDS011;30723;51.206;3.326;2022-07-23T00:51:51;9.60;;;5.97;;
44989;SDS011;30723;51.206;3.326;2022-07-23T00:54:19;6.85;;;5.68;;
44989;SDS011;30723;51.206;3.326;2022-07-23T00:56:47;7.72;;;5.80;;
44989;SDS011;30723;51.206;3.326;2022-07-23T00:59:13;8.40;;;5.78;;
44989;SDS011;30723;51.206;3.326;2022-07-23T01:01:40;10.63;;;6.50;;
44989;SDS011;30723;51.206;3.326;2022-07-23T01:04:06;8.07;;;6.20;;
44989;SDS011;30723;51.206;3.326;2022-07-23T01:06:36;11.77;;;6.45;;
44989;SDS011;30723;51.206;3.326;2022-07-23T01:09:04;9.00;;;7.07;;
44989;SDS011;30723;51.206;3.326;2022-07-23T01:11:35;9.93;;;6.78;;
44989;SDS011;30723;51.206;3.326;2022-07-23T01:14:18;9.55;;;6.18;;
44989;SDS011;30723;51.206;3.326;2022-07-23T01:16:47;10.48;;;6.25;;
44989;SDS011;30723;51.206;3.326;2022-07-23T01:19:15;8.32;;;6.65;;
44989;SDS011;30723;51.206;3.326;2022-07-23T01:21:43;8.52;;;6.57;;
44989;SDS011;30723;51.206;3.326;2022-07-23T01:24:12;7.38;;;6.13;;
44989;SDS011;30723;51.206;3.326;2022-07-23T01:26:41;11.60;;;6.15;;
44989;SDS011;30723;51.206;3.326;2022-07-23T01:29:11;7.85;;;6.10;;
44989;SDS011;30723;51.206;3.326;2022-07-23T01:31:38;9.95;;;6.40;;
44989;SDS011;30723;51.206;3.326;2022-07-23T01:34:03;9.98;;;7.43;;
44989;SDS011;30723;51.206;3.326;2022-07-23T01:36:30;8.80;;;6.95;;
44989;SDS011;30723;51.206;3.326;2022-07-23T01:38:55;11.32;;;7.10;;
44989;SDS011;30723;51.206;3.326;2022-07-23T01:41:22;8.57;;;6.68;;
44989;SDS011;30723;51.206;3.326;2022-07-23T01:43:49;8.45;;;6.35;;
44989;SDS011;30723;51.206;3.326;2022-07-23T01:46:16;11.65;;;6.40;;
44989;SDS011;30723;51.206;3.326;2022-07-23T01:48:43;7.95;;;6.47;;
44989;SDS011;30723;51.206;3.326;2022-07-23T01:51:10;10.88;;;6.97;;
44989;SDS011;30723;51.206;3.326;2022-07-23T01:53:37;10.38;;;7.20;;
44989;SDS011;30723;51.206;3.326;2022-07-23T01:56:04;9.13;;;6.50;;
44989;SDS011;30723;51.206;3.326;2022-07-23T01:58:32;8.27;;;6.25;;
44989;SDS011;30723;51.206;3.326;2022-07-23T02:00:58;9.75;;;7.07;;
44989;SDS011;30723;51.206;3.326;2022-07-23T02:03:26;12.90;;;7.07;;
44989;SDS011;30723;51.206;3.326;2022-07-23T02:05:53;8.68;;;6.93;;
44989;SDS011;30723;51.206;3.326;2022-07-23T02:08:20;9.90;;;7.55;;
44989;SDS011;30723;51.206;3.326;2022-07-23T02:10:46;13.75;;;6.88;;
44989;SDS011;30723;51.206;3.326;2022-07-23T02:13:13;9.98;;;7.22;;
44989;SDS011;30723;51.206;3.326;2022-07-23T02:15:40;12.63;;;7.68;;
44989;SDS011;30723;51.206;3.326;2022-07-23T02:18:07;8.70;;;6.85;;
44989;SDS011;30723;51.206;3.326;2022-07-23T02:20:34;9.98;;;7.30;;
44989;SDS011;30723;51.206;3.326;2022-07-23T02:23:03;9.75;;;6.95;;
44989;SDS011;30723;51.206;3.326;2022-07-23T02:25:31;10.68;;;6.57;;
44989;SDS011;30723;51.206;3.326;2022-07-23T02:27:58;11.82;;;6.88;;
44989;SDS011;30723;51.206;3.326;2022-07-23T02:30:25;15.32;;;6.93;;
44989;SDS011;30723;51.206;3.326;2022-07-23T02:32:52;9.73;;;6.57;;
44989;SDS011;30723;51.206;3.326;2022-07-23T02:35:19;12.75;;;6.85;;
44989;SDS011;30723;51.206;3.326;2022-07-23T02:37:45;9.05;;;6.65;;
44989;SDS011;30723;51.206;3.326;2022-07-23T02:40:11;10.85;;;6.88;;
44989;SDS011;30723;51.206;3.326;2022-07-23T02:42:38;9.30;;;6.00;;
44989;SDS011;30723;51.206;3.326;2022-07-23T02:45:04;8.48;;;6.30;;
44989;SDS011;30723;51.206;3.326;2022-07-23T02:47:31;7.93;;;6.97;;
44989;SDS011;30723;51.206;3.326;2022-07-23T02:49:57;8.95;;;6.28;;
44989;SDS011;30723;51.206;3.326;2022-07-23T02:52:24;7.90;;;6.03;;
44989;SDS011;30723;51.206;3.326;2022-07-23T02:54:50;10.10;;;6.85;;
44989;SDS011;30723;51.206;3.326;2022-07-23T02:57:17;8.65;;;6.50;;
44989;SDS011;30723;51.206;3.326;2022-07-23T02:59:43;10.75;;;7.20;;
44989;SDS011;30723;51.206;3.326;2022-07-23T03:02:10;10.15;;;7.53;;
44989;SDS011;30723;51.206;3.326;2022-07-23T03:04:36;9.10;;;7.45;;
44989;SDS011;30723;51.206;3.326;2022-07-23T03:07:03;9.50;;;7.38;;
44989;SDS011;30723;51.206;3.326;2022-07-23T03:09:30;9.10;;;7.35;;
44989;SDS011;30723;51.206;3.326;2022-07-23T03:11:57;10.63;;;7.47;;
44989;SDS011;30723;51.206;3.326;2022-07-23T03:14:22;13.85;;;8.23;;
44989;SDS011;30723;51.206;3.326;2022-07-23T03:16:49;10.90;;;7.88;;
44989;SDS011;30723;51.206;3.326;2022-07-23T03:19:16;17.38;;;8.73;;
44989;SDS011;30723;51.206;3.326;2022-07-23T03:21:43;11.05;;;8.35;;
44989;SDS011;30723;51.206;3.326;2022-07-23T03:24:10;12.52;;;8.30;;
44989;SDS011;30723;51.206;3.326;2022-07-23T03:26:37;9.98;;;7.32;;
44989;SDS011;30723;51.206;3.326;2022-07-23T03:29:04;12.73;;;8.20;;
44989;SDS011;30723;51.206;3.326;2022-07-23T03:31:32;14.95;;;7.68;;
44989;SDS011;30723;51.206;3.326;2022-07-23T03:33:58;12.95;;;8.30;;
44989;SDS011;30723;51.206;3.326;2022-07-23T03:36:24;14.02;;;8.27;;
44989;SDS011;30723;51.206;3.326;2022-07-23T03:38:51;11.73;;;7.95;;
44989;SDS011;30723;51.206;3.326;2022-07-23T03:41:19;14.80;;;8.27;;
44989;SDS011;30723;51.206;3.326;2022-07-23T03:43:46;17.88;;;8.27;;
44989;SDS011;30723;51.206;3.326;2022-07-23T03:46:13;15.27;;;8.93;;
44989;SDS011;30723;51.206;3.326;2022-07-23T03:48:38;14.73;;;9.23;;
44989;SDS011;30723;51.206;3.326;2022-07-23T03:51:05;13.35;;;9.10;;
44989;SDS011;30723;51.206;3.326;2022-07-23T03:53:32;9.82;;;8.82;;
44989;SDS011;30723;51.206;3.326;2022-07-23T03:55:59;11.75;;;9.15;;
44989;SDS011;30723;51.206;3.326;2022-07-23T03:58:26;11.80;;;9.20;;
44989;SDS011;30723;51.206;3.326;2022-07-23T04:00:53;12.23;;;8.68;;
44989;SDS011;30723;51.206;3.326;2022-07-23T04:03:19;10.70;;;8.82;;
44989;SDS011;30723;51.206;3.326;2022-07-23T04:05:46;14.50;;;9.30;;
44989;SDS011;30723;51.206;3.326;2022-07-23T04:08:13;17.92;;;9.15;;
44989;SDS011;30723;51.206;3.326;2022-07-23T04:10:39;15.13;;;8.98;;
44989;SDS011;30723;51.206;3.326;2022-07-23T04:13:05;11.10;;;9.02;;
44989;SDS011;30723;51.206;3.326;2022-07-23T04:15:32;16.45;;;10.05;;
44989;SDS011;30723;51.206;3.326;2022-07-23T04:17:58;12.90;;;9.40;;
44989;SDS011;30723;51.206;3.326;2022-07-23T04:20:25;14.38;;;10.40;;
44989;SDS011;30723;51.206;3.326;2022-07-23T04:22:51;13.10;;;10.25;;
44989;SDS011;30723;51.206;3.326;2022-07-23T04:25:17;14.48;;;9.70;;
44989;SDS011;30723;51.206;3.326;2022-07-23T04:27:44;15.95;;;10.13;;
44989;SDS011;30723;51.206;3.326;2022-07-23T04:30:10;14.27;;;10.75;;
44989;SDS011;30723;51.206;3.326;2022-07-23T04:32:37;15.43;;;10.52;;
44989;SDS011;30723;51.206;3.326;2022-07-23T04:35:04;13.00;;;9.27;;
44989;SDS011;30723;51.206;3.326;2022-07-23T04:37:30;17.83;;;10.98;;
44989;SDS011;30723;51.206;3.326;2022-07-23T04:39:56;13.07;;;10.00;;
44989;SDS011;30723;51.206;3.326;2022-07-23T04:42:23;13.80;;;10.70;;
44989;SDS011;30723;51.206;3.326;2022-07-23T04:44:50;14.60;;;10.18;;
44989;SDS011;30723;51.206;3.326;2022-07-23T04:47:16;15.23;;;10.07;;
44989;SDS011;30723;51.206;3.326;2022-07-23T04:49:42;13.73;;;9.60;;
44989;SDS011;30723;51.206;3.326;2022-07-23T04:52:08;17.98;;;10.43;;
44989;SDS011;30723;51.206;3.326;2022-07-23T04:54:35;13.60;;;9.38;;
44989;SDS011;30723;51.206;3.326;2022-07-23T04:57:01;13.82;;;9.75;;
44989;SDS011;30723;51.206;3.326;2022-07-23T04:59:28;13.27;;;9.93;;
44989;SDS011;30723;51.206;3.326;2022-07-23T05:01:55;19.55;;;10.23;;
44989;SDS011;30723;51.206;3.326;2022-07-23T05:04:21;15.00;;;10.50;;
44989;SDS011;30723;51.206;3.326;2022-07-23T05:06:48;15.23;;;10.70;;
44989;SDS011;30723;51.206;3.326;2022-07-23T05:09:14;14.80;;;9.93;;
44989;SDS011;30723;51.206;3.326;2022-07-23T05:11:39;16.75;;;10.52;;
44989;SDS011;30723;51.206;3.326;2022-07-23T05:14:05;15.20;;;10.25;;
44989;SDS011;30723;51.206;3.326;2022-07-23T05:16:32;16.70;;;9.50;;
44989;SDS011;30723;51.206;3.326;2022-07-23T05:18:58;15.50;;;9.30;;
44989;SDS011;30723;51.206;3.326;2022-07-23T05:21:25;13.02;;;9.50;;
44989;SDS011;30723;51.206;3.326;2022-07-23T05:23:59;14.60;;;10.52;;
44989;SDS011;30723;51.206;3.326;2022-07-23T05:26:26;17.90;;;10.23;;
44989;SDS011;30723;51.206;3.326;2022-07-23T05:28:53;14.23;;;10.25;;
44989;SDS011;30723;51.206;3.326;2022-07-23T05:31:19;14.23;;;11.02;;
44989;SDS011;30723;51.206;3.326;2022-07-23T05:33:45;13.80;;;10.68;;
44989;SDS011;30723;51.206;3.326;2022-07-23T05:36:12;19.08;;;10.45;;
44989;SDS011;30723;51.206;3.326;2022-07-23T05:38:38;13.63;;;9.77;;
44989;SDS011;30723;51.206;3.326;2022-07-23T05:41:05;13.20;;;9.98;;
44989;SDS011;30723;51.206;3.326;2022-07-23T05:43:31;12.48;;;9.45;;
44989;SDS011;30723;51.206;3.326;2022-07-23T05:45:57;12.27;;;9.73;;
44989;SDS011;30723;51.206;3.326;2022-07-23T05:48:23;13.25;;;9.43;;
44989;SDS011;30723;51.206;3.326;2022-07-23T05:50:50;16.10;;;11.05;;
44989;SDS011;30723;51.206;3.326;2022-07-23T05:53:17;19.90;;;10.80;;
44989;SDS011;30723;51.206;3.326;2022-07-23T05:55:44;19.35;;;11.15;;
44989;SDS011;30723;51.206;3.326;2022-07-23T05:58:10;18.65;;;10.35;;
44989;SDS011;30723;51.206;3.326;2022-07-23T06:00:36;20.75;;;9.48;;
44989;SDS011;30723;51.206;3.326;2022-07-23T06:03:03;17.35;;;9.55;;
44989;SDS011;30723;51.206;3.326;2022-07-23T06:05:29;23.60;;;9.50;;
44989;SDS011;30723;51.206;3.326;2022-07-23T06:07:55;18.75;;;9.10;;
44989;SDS011;30723;51.206;3.326;2022-07-23T06:10:22;11.52;;;9.32;;
44989;SDS011;30723;51.206;3.326;2022-07-23T06:12:49;19.52;;;9.50;;
44989;SDS011;30723;51.206;3.326;2022-07-23T06:15:15;17.23;;;9.23;;
44989;SDS011;30723;51.206;3.326;2022-07-23T06:17:42;14.55;;;9.43;;
44989;SDS011;30723;51.206;3.326;2022-07-23T06:20:09;18.70;;;9.73;;
44989;SDS011;30723;51.206;3.326;2022-07-23T06:22:36;15.00;;;10.10;;
44989;SDS011;30723;51.206;3.326;2022-07-23T06:25:03;18.33;;;10.75;;
44989;SDS011;30723;51.206;3.326;2022-07-23T06:27:29;16.13;;;10.30;;
44989;SDS011;30723;51.206;3.326;2022-07-23T06:29:56;11.75;;;9.40;;
44989;SDS011;30723;51.206;3.326;2022-07-23T06:32:23;9.57;;;7.78;;
44989;SDS011;30723;51.206;3.326;2022-07-23T06:34:49;10.80;;;8.30;;
44989;SDS011;30723;51.206;3.326;2022-07-23T06:37:16;11.70;;;7.82;;
44989;SDS011;30723;51.206;3.326;2022-07-23T06:39:42;9.77;;;7.22;;
44989;SDS011;30723;51.206;3.326;2022-07-23T06:42:09;9.68;;;6.93;;
44989;SDS011;30723;51.206;3.326;2022-07-23T06:44:37;11.48;;;7.57;;
44989;SDS011;30723;51.206;3.326;2022-07-23T06:47:03;12.35;;;8.05;;
44989;SDS011;30723;51.206;3.326;2022-07-23T06:49:29;10.63;;;7.25;;
44989;SDS011;30723;51.206;3.326;2022-07-23T06:51:57;10.27;;;6.93;;
44989;SDS011;30723;51.206;3.326;2022-07-23T06:54:23;10.05;;;7.72;;
44989;SDS011;30723;51.206;3.326;2022-07-23T06:56:49;10.88;;;7.25;;
44989;SDS011;30723;51.206;3.326;2022-07-23T06:59:16;15.35;;;8.20;;
44989;SDS011;30723;51.206;3.326;2022-07-23T07:01:43;13.68;;;7.65;;
44989;SDS011;30723;51.206;3.326;2022-07-23T07:04:09;11.55;;;7.93;;
44989;SDS011;30723;51.206;3.326;2022-07-23T07:06:35;14.20;;;8.20;;
44989;SDS011;30723;51.206;3.326;2022-07-23T07:09:01;14.45;;;7.97;;
44989;SDS011;30723;51.206;3.326;2022-07-23T07:11:28;9.90;;;7.82;;
44989;SDS011;30723;51.206;3.326;2022-07-23T07:13:54;10.30;;;7.30;;
44989;SDS011;30723;51.206;3.326;2022-07-23T07:16:20;11.30;;;7.28;;
44989;SDS011;30723;51.206;3.326;2022-07-23T07:18:46;12.63;;;6.95;;
44989;SDS011;30723;51.206;3.326;2022-07-23T07:21:13;12.88;;;7.57;;
44989;SDS011;30723;51.206;3.326;2022-07-23T07:23:40;11.50;;;7.68;;
44989;SDS011;30723;51.206;3.326;2022-07-23T07:26:07;13.55;;;6.93;;
44989;SDS011;30723;51.206;3.326;2022-07-23T07:28:33;11.00;;;7.07;;
44989;SDS011;30723;51.206;3.326;2022-07-23T07:31:00;12.73;;;7.18;;
44989;SDS011;30723;51.206;3.326;2022-07-23T07:33:27;11.85;;;8.02;;
44989;SDS011;30723;51.206;3.326;2022-07-23T07:35:54;10.35;;;7.50;;
44989;SDS011;30723;51.206;3.326;2022-07-23T07:38:19;10.55;;;7.30;;
44989;SDS011;30723;51.206;3.326;2022-07-23T07:40:45;11.13;;;7.47;;
44989;SDS011;30723;51.206;3.326;2022-07-23T07:43:11;10.05;;;7.82;;
44989;SDS011;30723;51.206;3.326;2022-07-23T07:45:38;15.95;;;7.70;;
44989;SDS011;30723;51.206;3.326;2022-07-23T07:48:05;11.43;;;7.38;;
44989;SDS011;30723;51.206;3.326;2022-07-23T07:50:32;10.07;;;7.40;;
44989;SDS011;30723;51.206;3.326;2022-07-23T07:52:57;8.80;;;7.20;;
44989;SDS011;30723;51.206;3.326;2022-07-23T07:55:23;12.80;;;7.45;;
44989;SDS011;30723;51.206;3.326;2022-07-23T07:57:49;11.95;;;7.65;;
44989;SDS011;30723;51.206;3.326;2022-07-23T08:00:16;11.38;;;7.60;;
44989;SDS011;30723;51.206;3.326;2022-07-23T08:02:49;9.88;;;6.95;;
44989;SDS011;30723;51.206;3.326;2022-07-23T08:05:27;10.85;;;7.55;;
44989;SDS011;30723;51.206;3.326;2022-07-23T08:08:09;10.10;;;7.50;;
44989;SDS011;30723;51.206;3.326;2022-07-23T08:10:40;14.15;;;8.57;;
44989;SDS011;30723;51.206;3.326;2022-07-23T08:13:06;10.07;;;8.07;;
44989;SDS011;30723;51.206;3.326;2022-07-23T08:15:32;9.38;;;7.60;;
44989;SDS011;30723;51.206;3.326;2022-07-23T08:17:59;11.90;;;7.93;;
44989;SDS011;30723;51.206;3.326;2022-07-23T08:20:26;13.75;;;8.10;;
44989;SDS011;30723;51.206;3.326;2022-07-23T08:23:13;10.52;;;7.93;;
44989;SDS011;30723;51.206;3.326;2022-07-23T08:25:40;12.35;;;8.38;;
44989;SDS011;30723;51.206;3.326;2022-07-23T08:28:08;12.52;;;8.30;;
44989;SDS011;30723;51.206;3.326;2022-07-23T08:30:35;13.77;;;9.38;;
44989;SDS011;30723;51.206;3.326;2022-07-23T08:33:17;13.13;;;9.07;;
44989;SDS011;30723;51.206;3.326;2022-07-23T08:36:00;15.10;;;9.27;;
44989;SDS011;30723;51.206;3.326;2022-07-23T08:38:29;12.10;;;9.13;;
44989;SDS011;30723;51.206;3.326;2022-07-23T08:40:57;28.48;;;9.52;;
44989;SDS011;30723;51.206;3.326;2022-07-23T08:43:25;11.82;;;8.80;;
44989;SDS011;30723;51.206;3.326;2022-07-23T08:45:53;19.30;;;9.63;;
44989;SDS011;30723;51.206;3.326;2022-07-23T08:48:25;12.95;;;9.57;;
44989;SDS011;30723;51.206;3.326;2022-07-23T08:50:54;20.67;;;10.25;;
44989;SDS011;30723;51.206;3.326;2022-07-23T08:53:23;10.82;;;9.30;;
44989;SDS011;30723;51.206;3.326;2022-07-23T08:55:52;13.20;;;9.63;;
44989;SDS011;30723;51.206;3.326;2022-07-23T08:58:21;14.13;;;10.45;;
44989;SDS011;30723;51.206;3.326;2022-07-23T09:00:48;17.52;;;10.35;;
44989;SDS011;30723;51.206;3.326;2022-07-23T09:05:45;15.15;;;11.00;;
44989;SDS011;30723;51.206;3.326;2022-07-23T09:08:15;96.45;;;15.43;;
44989;SDS011;30723;51.206;3.326;2022-07-23T09:15:54;15.65;;;10.90;;
44989;SDS011;30723;51.206;3.326;2022-07-23T09:18:29;14.73;;;11.13;;
44989;SDS011;30723;51.206;3.326;2022-07-23T09:26:25;18.92;;;10.95;;
44989;SDS011;30723;51.206;3.326;2022-07-23T09:29:09;16.48;;;11.60;;
44989;SDS011;30723;51.206;3.326;2022-07-23T09:31:52;13.75;;;10.43;;
44989;SDS011;30723;51.206;3.326;2022-07-23T09:34:28;15.43;;;10.52;;
44989;SDS011;30723;51.206;3.326;2022-07-23T09:39:42;17.17;;;10.02;;
44989;SDS011;30723;51.206;3.326;2022-07-23T09:44:48;10.88;;;9.65;;
44989;SDS011;30723;51.206;3.326;2022-07-23T09:47:35;16.65;;;11.40;;
44989;SDS011;30723;51.206;3.326;2022-07-23T09:50:06;12.48;;;10.50;;
44989;SDS011;30723;51.206;3.326;2022-07-23T09:52:43;11.98;;;10.38;;
44989;SDS011;30723;51.206;3.326;2022-07-23T09:55:14;18.63;;;10.50;;
44989;SDS011;30723;51.206;3.326;2022-07-23T09:57:42;20.25;;;11.70;;
44989;SDS011;30723;51.206;3.326;2022-07-23T10:00:10;14.35;;;11.05;;
44989;SDS011;30723;51.206;3.326;2022-07-23T10:02:39;14.93;;;10.45;;
44989;SDS011;30723;51.206;3.326;2022-07-23T10:05:06;17.80;;;10.90;;
44989;SDS011;30723;51.206;3.326;2022-07-23T10:07:34;13.13;;;10.45;;
44989;SDS011;30723;51.206;3.326;2022-07-23T10:10:03;17.98;;;10.45;;
44989;SDS011;30723;51.206;3.326;2022-07-23T10:12:32;14.50;;;9.90;;
44989;SDS011;30723;51.206;3.326;2022-07-23T10:15:02;13.25;;;9.85;;
44989;SDS011;30723;51.206;3.326;2022-07-23T10:17:32;17.73;;;10.52;;
44989;SDS011;30723;51.206;3.326;2022-07-23T10:19:58;12.40;;;10.02;;
44989;SDS011;30723;51.206;3.326;2022-07-23T10:22:28;11.38;;;9.48;;
44989;SDS011;30723;51.206;3.326;2022-07-23T10:25:08;10.80;;;9.07;;
44989;SDS011;30723;51.206;3.326;2022-07-23T10:27:44;13.25;;;9.90;;
44989;SDS011;30723;51.206;3.326;2022-07-23T10:30:37;13.30;;;9.10;;
44989;SDS011;30723;51.206;3.326;2022-07-23T10:38:34;16.75;;;9.15;;
44989;SDS011;30723;51.206;3.326;2022-07-23T10:41:19;9.82;;;8.15;;
44989;SDS011;30723;51.206;3.326;2022-07-23T10:44:18;11.23;;;9.68;;
44989;SDS011;30723;51.206;3.326;2022-07-23T10:46:58;13.23;;;9.38;;
44989;SDS011;30723;51.206;3.326;2022-07-23T10:49:34;11.57;;;9.40;;
44989;SDS011;30723;51.206;3.326;2022-07-23T10:54:53;10.68;;;8.43;;
44989;SDS011;30723;51.206;3.326;2022-07-23T10:57:23;10.48;;;8.20;;
44989;SDS011;30723;51.206;3.326;2022-07-23T11:02:41;9.68;;;7.50;;
44989;SDS011;30723;51.206;3.326;2022-07-23T11:05:12;8.45;;;7.00;;
44989;SDS011;30723;51.206;3.326;2022-07-23T11:24:03;6.45;;;5.78;;
44989;SDS011;30723;51.206;3.326;2022-07-23T11:29:40;11.77;;;6.75;;
44989;SDS011;30723;51.206;3.326;2022-07-23T11:32:08;9.07;;;6.32;;
44989;SDS011;30723;51.206;3.326;2022-07-23T11:34:44;6.78;;;5.53;;
44989;SDS011;30723;51.206;3.326;2022-07-23T11:37:12;8.88;;;6.85;;
44989;SDS011;30723;51.206;3.326;2022-07-23T11:40:07;8.27;;;7.05;;
44989;SDS011;30723;51.206;3.326;2022-07-23T11:42:37;13.55;;;6.55;;
44989;SDS011;30723;51.206;3.326;2022-07-23T11:50:52;9.93;;;6.53;;
44989;SDS011;30723;51.206;3.326;2022-07-23T11:53:50;11.60;;;7.90;;
44989;SDS011;30723;51.206;3.326;2022-07-23T11:56:35;10.80;;;7.68;;
44989;SDS011;30723;51.206;3.326;2022-07-23T11:59:29;9.70;;;7.05;;
44989;SDS011;30723;51.206;3.326;2022-07-23T12:02:16;10.68;;;6.60;;
44989;SDS011;30723;51.206;3.326;2022-07-23T12:04:43;6.50;;;5.80;;
44989;SDS011;30723;51.206;3.326;2022-07-23T12:09:58;11.45;;;6.80;;
44989;SDS011;30723;51.206;3.326;2022-07-23T12:12:46;14.48;;;7.18;;
44989;SDS011;30723;51.206;3.326;2022-07-23T12:15:33;10.98;;;6.60;;
44989;SDS011;30723;51.206;3.326;2022-07-23T12:18:25;10.15;;;7.90;;
44989;SDS011;30723;51.206;3.326;2022-07-23T12:20:53;10.52;;;7.93;;
44989;SDS011;30723;51.206;3.326;2022-07-23T12:23:21;10.23;;;7.07;;
44989;SDS011;30723;51.206;3.326;2022-07-23T12:25:48;16.85;;;10.82;;
44989;SDS011;30723;51.206;3.326;2022-07-23T12:28:36;10.18;;;7.10;;
44989;SDS011;30723;51.206;3.326;2022-07-23T12:31:03;13.43;;;7.40;;
44989;SDS011;30723;51.206;3.326;2022-07-23T12:33:51;7.68;;;6.30;;
44989;SDS011;30723;51.206;3.326;2022-07-23T12:36:40;13.97;;;6.80;;
44989;SDS011;30723;51.206;3.326;2022-07-23T12:39:30;16.17;;;8.35;;
44989;SDS011;30723;51.206;3.326;2022-07-23T12:42:15;9.73;;;7.65;;
44989;SDS011;30723;51.206;3.326;2022-07-23T12:44:41;10.77;;;7.78;;
44989;SDS011;30723;51.206;3.326;2022-07-23T12:47:53;16.98;;;9.27;;
44989;SDS011;30723;51.206;3.326;2022-07-23T12:50:40;12.45;;;8.05;;
44989;SDS011;30723;51.206;3.326;2022-07-23T12:55:39;9.38;;;7.75;;
44989;SDS011;30723;51.206;3.326;2022-07-23T13:03:27;11.30;;;8.55;;
44989;SDS011;30723;51.206;3.326;2022-07-23T13:05:58;9.23;;;8.07;;
44989;SDS011;30723;51.206;3.326;2022-07-23T13:08:25;14.00;;;7.95;;
44989;SDS011;30723;51.206;3.326;2022-07-23T13:10:52;11.45;;;8.10;;
44989;SDS011;30723;51.206;3.326;2022-07-23T13:13:22;10.57;;;7.25;;
44989;SDS011;30723;51.206;3.326;2022-07-23T13:15:53;9.27;;;7.93;;
44989;SDS011;30723;51.206;3.326;2022-07-23T13:18:20;10.50;;;7.22;;
44989;SDS011;30723;51.206;3.326;2022-07-23T13:20:48;14.45;;;7.50;;
44989;SDS011;30723;51.206;3.326;2022-07-23T13:23:15;9.40;;;7.43;;
44989;SDS011;30723;51.206;3.326;2022-07-23T13:25:42;10.90;;;8.77;;
44989;SDS011;30723;51.206;3.326;2022-07-23T13:28:08;11.60;;;8.57;;
44989;SDS011;30723;51.206;3.326;2022-07-23T13:30:33;9.68;;;8.02;;
44989;SDS011;30723;51.206;3.326;2022-07-23T13:33:00;9.63;;;7.95;;
44989;SDS011;30723;51.206;3.326;2022-07-23T13:35:28;11.88;;;8.73;;
44989;SDS011;30723;51.206;3.326;2022-07-23T13:37:54;9.88;;;7.45;;
44989;SDS011;30723;51.206;3.326;2022-07-23T13:40:21;10.77;;;6.97;;
44989;SDS011;30723;51.206;3.326;2022-07-23T13:42:47;11.13;;;6.82;;
44989;SDS011;30723;51.206;3.326;2022-07-23T13:45:14;10.98;;;7.32;;
44989;SDS011;30723;51.206;3.326;2022-07-23T13:47:40;15.73;;;10.55;;
44989;SDS011;30723;51.206;3.326;2022-07-23T13:50:06;13.00;;;9.52;;
44989;SDS011;30723;51.206;3.326;2022-07-23T13:52:33;15.98;;;10.23;;
44989;SDS011;30723;51.206;3.326;2022-07-23T13:55:01;16.63;;;11.75;;
44989;SDS011;30723;51.206;3.326;2022-07-23T13:57:29;16.02;;;10.70;;
44989;SDS011;30723;51.206;3.326;2022-07-23T13:59:55;12.60;;;10.20;;
44989;SDS011;30723;51.206;3.326;2022-07-23T14:02:21;16.90;;;11.98;;
44989;SDS011;30723;51.206;3.326;2022-07-23T14:04:47;16.98;;;13.02;;
44989;SDS011;30723;51.206;3.326;2022-07-23T14:07:14;20.73;;;13.45;;
44989;SDS011;30723;51.206;3.326;2022-07-23T14:09:41;22.55;;;14.23;;
44989;SDS011;30723;51.206;3.326;2022-07-23T14:12:08;20.13;;;12.38;;
44989;SDS011;30723;51.206;3.326;2022-07-23T14:14:35;18.50;;;11.32;;
44989;SDS011;30723;51.206;3.326;2022-07-23T14:17:02;16.80;;;11.05;;
44989;SDS011;30723;51.206;3.326;2022-07-23T14:19:29;23.58;;;12.25;;
44989;SDS011;30723;51.206;3.326;2022-07-23T14:21:56;16.40;;;12.13;;
44989;SDS011;30723;51.206;3.326;2022-07-23T14:24:22;17.20;;;13.50;;
44989;SDS011;30723;51.206;3.326;2022-07-23T14:26:49;21.73;;;12.82;;
44989;SDS011;30723;51.206;3.326;2022-07-23T14:29:16;18.27;;;12.32;;
44989;SDS011;30723;51.206;3.326;2022-07-23T14:31:43;19.45;;;12.55;;
44989;SDS011;30723;51.206;3.326;2022-07-23T14:34:09;14.60;;;13.10;;
44989;SDS011;30723;51.206;3.326;2022-07-23T14:36:37;16.73;;;13.00;;
44989;SDS011;30723;51.206;3.326;2022-07-23T14:39:03;16.83;;;12.07;;
44989;SDS011;30723;51.206;3.326;2022-07-23T14:41:29;20.88;;;11.85;;
44989;SDS011;30723;51.206;3.326;2022-07-23T14:43:55;25.83;;;12.00;;
44989;SDS011;30723;51.206;3.326;2022-07-23T14:46:22;12.63;;;11.05;;
44989;SDS011;30723;51.206;3.326;2022-07-23T14:48:48;13.30;;;11.88;;
44989;SDS011;30723;51.206;3.326;2022-07-23T14:51:15;14.77;;;11.63;;
44989;SDS011;30723;51.206;3.326;2022-07-23T14:53:41;17.58;;;12.30;;
44989;SDS011;30723;51.206;3.326;2022-07-23T14:56:08;16.80;;;11.35;;
44989;SDS011;30723;51.206;3.326;2022-07-23T14:58:35;15.95;;;11.32;;
44989;SDS011;30723;51.206;3.326;2022-07-23T15:01:01;15.98;;;12.70;;
44989;SDS011;30723;51.206;3.326;2022-07-23T15:03:28;12.65;;;10.45;;
44989;SDS011;30723;51.206;3.326;2022-07-23T15:05:54;14.93;;;12.05;;
44989;SDS011;30723;51.206;3.326;2022-07-23T15:08:20;16.00;;;11.10;;
44989;SDS011;30723;51.206;3.326;2022-07-23T15:10:46;12.70;;;10.77;;
44989;SDS011;30723;51.206;3.326;2022-07-23T15:13:12;14.93;;;12.35;;
44989;SDS011;30723;51.206;3.326;2022-07-23T15:15:37;12.52;;;9.25;;
44989;SDS011;30723;51.206;3.326;2022-07-23T15:18:03;18.95;;;11.45;;
44989;SDS011;30723;51.206;3.326;2022-07-23T15:20:29;15.27;;;11.70;;
44989;SDS011;30723;51.206;3.326;2022-07-23T15:22:56;15.07;;;11.80;;
44989;SDS011;30723;51.206;3.326;2022-07-23T15:25:23;13.27;;;10.30;;
44989;SDS011;30723;51.206;3.326;2022-07-23T15:27:49;15.98;;;11.38;;
44989;SDS011;30723;51.206;3.326;2022-07-23T15:30:17;13.63;;;10.07;;
44989;SDS011;30723;51.206;3.326;2022-07-23T15:32:43;16.80;;;10.90;;
44989;SDS011;30723;51.206;3.326;2022-07-23T15:35:09;15.57;;;12.93;;
44989;SDS011;30723;51.206;3.326;2022-07-23T15:37:35;15.82;;;11.18;;
44989;SDS011;30723;51.206;3.326;2022-07-23T15:40:01;14.40;;;12.90;;
44989;SDS011;30723;51.206;3.326;2022-07-23T15:42:31;24.67;;;14.65;;
44989;SDS011;30723;51.206;3.326;2022-07-23T15:44:57;21.80;;;13.77;;
44989;SDS011;30723;51.206;3.326;2022-07-23T15:47:24;14.63;;;11.70;;